Xenia, Illinois
Current Conditions -  °F | °C
As of 12:35 PM on Thursday 27 Nov 2014 (Local Time) from KFOA Reporting Station
Clear Clear  
Wind Chill: 18°   Ceiling: Unl
Heat Index: 29°   Visibility: 10mi
Dew Point: 23°   Wind: 14mph
Humidity: 78%   Direction: 310°NW
Pressure: 30.45"   Gusts: 24mph
Location:  38.64°N, 88.63°W
Report Text: KFOA 271835Z AUTO 31012G21KT 10SM CLR M02/M05 A3045 RMK AO2 T10171051
Loading
Personal Weather Stations






























Interactive Weather Map New forecast layout! Learn more

10-Day Weather Forecast

Advertisements
Track Severe Weather on mobile